sensor_id;sensor_type;location;lat;lon;timestamp;P1;durP1;ratioP1;P2;durP2;ratioP2
73699;SDS011;62005;50.082;8.988;2023-09-08T00:02:17;6.40;;;2.90;;
73699;SDS011;62005;50.082;8.988;2023-09-08T00:04:43;7.33;;;3.27;;
73699;SDS011;62005;50.082;8.988;2023-09-08T00:07:08;6.77;;;3.33;;
73699;SDS011;62005;50.082;8.988;2023-09-08T00:09:33;7.47;;;3.23;;
73699;SDS011;62005;50.082;8.988;2023-09-08T00:11:58;5.50;;;2.77;;
73699;SDS011;62005;50.082;8.988;2023-09-08T00:14:23;3.80;;;2.53;;
73699;SDS011;62005;50.082;8.988;2023-09-08T00:16:49;5.60;;;2.70;;
73699;SDS011;62005;50.082;8.988;2023-09-08T00:19:14;5.23;;;2.80;;
73699;SDS011;62005;50.082;8.988;2023-09-08T00:21:39;5.03;;;2.90;;
73699;SDS011;62005;50.082;8.988;2023-09-08T00:24:04;5.70;;;3.08;;
73699;SDS011;62005;50.082;8.988;2023-09-08T00:26:30;5.43;;;2.60;;
73699;SDS011;62005;50.082;8.988;2023-09-08T00:28:55;9.88;;;3.25;;
73699;SDS011;62005;50.082;8.988;2023-09-08T00:31:21;5.20;;;3.13;;
73699;SDS011;62005;50.082;8.988;2023-09-08T00:33:46;4.77;;;3.13;;
73699;SDS011;62005;50.082;8.988;2023-09-08T00:36:11;5.77;;;2.77;;
73699;SDS011;62005;50.082;8.988;2023-09-08T00:38:36;5.63;;;2.73;;
73699;SDS011;62005;50.082;8.988;2023-09-08T00:41:02;5.03;;;2.67;;
73699;SDS011;62005;50.082;8.988;2023-09-08T00:43:27;5.47;;;2.73;;
73699;SDS011;62005;50.082;8.988;2023-09-08T00:45:52;5.07;;;3.00;;
73699;SDS011;62005;50.082;8.988;2023-09-08T00:48:18;5.85;;;3.15;;
73699;SDS011;62005;50.082;8.988;2023-09-08T00:50:44;5.33;;;3.50;;
73699;SDS011;62005;50.082;8.988;2023-09-08T00:53:10;4.28;;;2.50;;
73699;SDS011;62005;50.082;8.988;2023-09-08T00:55:35;5.40;;;3.33;;
73699;SDS011;62005;50.082;8.988;2023-09-08T00:58:00;5.13;;;2.93;;
73699;SDS011;62005;50.082;8.988;2023-09-08T01:00:26;5.63;;;2.67;;
73699;SDS011;62005;50.082;8.988;2023-09-08T01:02:52;6.60;;;3.10;;
73699;SDS011;62005;50.082;8.988;2023-09-08T01:05:17;7.93;;;2.50;;
73699;SDS011;62005;50.082;8.988;2023-09-08T01:07:42;5.05;;;2.72;;
73699;SDS011;62005;50.082;8.988;2023-09-08T01:10:09;6.82;;;2.55;;
73699;SDS011;62005;50.082;8.988;2023-09-08T01:12:34;6.47;;;3.17;;
73699;SDS011;62005;50.082;8.988;2023-09-08T01:15:00;5.50;;;3.00;;
73699;SDS011;62005;50.082;8.988;2023-09-08T01:17:25;6.97;;;3.05;;
73699;SDS011;62005;50.082;8.988;2023-09-08T01:19:50;5.23;;;3.20;;
73699;SDS011;62005;50.082;8.988;2023-09-08T01:27:25;6.43;;;3.22;;
73699;SDS011;62005;50.082;8.988;2023-09-08T01:29:53;5.22;;;2.70;;
73699;SDS011;62005;50.082;8.988;2023-09-08T01:32:18;5.20;;;2.63;;
73699;SDS011;62005;50.082;8.988;2023-09-08T01:34:44;5.35;;;3.03;;
73699;SDS011;62005;50.082;8.988;2023-09-08T01:37:10;6.20;;;3.05;;
73699;SDS011;62005;50.082;8.988;2023-09-08T01:39:35;5.83;;;3.03;;
73699;SDS011;62005;50.082;8.988;2023-09-08T01:42:00;6.95;;;3.33;;
73699;SDS011;62005;50.082;8.988;2023-09-08T01:44:26;6.73;;;3.03;;
73699;SDS011;62005;50.082;8.988;2023-09-08T01:46:51;5.67;;;3.30;;
73699;SDS011;62005;50.082;8.988;2023-09-08T01:49:21;5.05;;;2.67;;
73699;SDS011;62005;50.082;8.988;2023-09-08T01:51:46;5.83;;;3.00;;
73699;SDS011;62005;50.082;8.988;2023-09-08T01:54:11;6.57;;;3.03;;
73699;SDS011;62005;50.082;8.988;2023-09-08T01:56:37;4.60;;;2.60;;
73699;SDS011;62005;50.082;8.988;2023-09-08T01:59:02;5.63;;;2.83;;
73699;SDS011;62005;50.082;8.988;2023-09-08T02:01:27;6.80;;;3.10;;
73699;SDS011;62005;50.082;8.988;2023-09-08T02:03:52;4.93;;;3.47;;
73699;SDS011;62005;50.082;8.988;2023-09-08T02:08:52;5.35;;;2.88;;
73699;SDS011;62005;50.082;8.988;2023-09-08T02:11:18;9.50;;;2.93;;
73699;SDS011;62005;50.082;8.988;2023-09-08T02:13:43;4.50;;;2.40;;
73699;SDS011;62005;50.082;8.988;2023-09-08T02:16:12;7.00;;;2.87;;
73699;SDS011;62005;50.082;8.988;2023-09-08T02:18:37;6.78;;;3.85;;
73699;SDS011;62005;50.082;8.988;2023-09-08T02:21:03;4.53;;;2.73;;
73699;SDS011;62005;50.082;8.988;2023-09-08T02:23:28;4.67;;;2.67;;
73699;SDS011;62005;50.082;8.988;2023-09-08T02:25:53;5.27;;;2.70;;
73699;SDS011;62005;50.082;8.988;2023-09-08T02:28:18;4.73;;;2.80;;
73699;SDS011;62005;50.082;8.988;2023-09-08T02:30:43;4.80;;;2.73;;
73699;SDS011;62005;50.082;8.988;2023-09-08T02:33:09;4.30;;;2.87;;
73699;SDS011;62005;50.082;8.988;2023-09-08T02:35:37;7.40;;;3.30;;
73699;SDS011;62005;50.082;8.988;2023-09-08T02:38:03;5.05;;;2.92;;
73699;SDS011;62005;50.082;8.988;2023-09-08T02:40:29;4.93;;;3.13;;
73699;SDS011;62005;50.082;8.988;2023-09-08T02:42:54;4.67;;;2.50;;
73699;SDS011;62005;50.082;8.988;2023-09-08T02:45:19;6.73;;;2.87;;
73699;SDS011;62005;50.082;8.988;2023-09-08T02:47:44;5.30;;;2.70;;
73699;SDS011;62005;50.082;8.988;2023-09-08T02:50:10;6.63;;;3.23;;
73699;SDS011;62005;50.082;8.988;2023-09-08T02:52:35;7.63;;;2.97;;
73699;SDS011;62005;50.082;8.988;2023-09-08T02:55:00;6.10;;;2.90;;
73699;SDS011;62005;50.082;8.988;2023-09-08T02:57:25;4.77;;;2.80;;
73699;SDS011;62005;50.082;8.988;2023-09-08T02:59:50;7.07;;;3.07;;
73699;SDS011;62005;50.082;8.988;2023-09-08T03:02:16;4.72;;;2.60;;
73699;SDS011;62005;50.082;8.988;2023-09-08T03:04:41;6.23;;;3.60;;
73699;SDS011;62005;50.082;8.988;2023-09-08T03:07:06;12.93;;;3.00;;
73699;SDS011;62005;50.082;8.988;2023-09-08T03:09:33;4.00;;;2.27;;
73699;SDS011;62005;50.082;8.988;2023-09-08T03:11:58;4.53;;;2.47;;
73699;SDS011;62005;50.082;8.988;2023-09-08T03:14:24;4.80;;;2.75;;
73699;SDS011;62005;50.082;8.988;2023-09-08T03:16:49;6.43;;;2.87;;
73699;SDS011;62005;50.082;8.988;2023-09-08T03:19:14;4.63;;;2.53;;
73699;SDS011;62005;50.082;8.988;2023-09-08T03:21:39;5.00;;;3.00;;
73699;SDS011;62005;50.082;8.988;2023-09-08T03:24:04;7.30;;;3.37;;
73699;SDS011;62005;50.082;8.988;2023-09-08T03:26:30;4.75;;;2.72;;
73699;SDS011;62005;50.082;8.988;2023-09-08T03:28:55;4.90;;;2.73;;
73699;SDS011;62005;50.082;8.988;2023-09-08T03:31:21;5.33;;;3.70;;
73699;SDS011;62005;50.082;8.988;2023-09-08T03:33:46;6.23;;;3.40;;
73699;SDS011;62005;50.082;8.988;2023-09-08T03:36:11;7.30;;;3.70;;
73699;SDS011;62005;50.082;8.988;2023-09-08T03:38:37;5.22;;;2.80;;
73699;SDS011;62005;50.082;8.988;2023-09-08T03:41:02;5.55;;;3.00;;
73699;SDS011;62005;50.082;8.988;2023-09-08T03:43:28;5.70;;;2.83;;
73699;SDS011;62005;50.082;8.988;2023-09-08T03:45:53;5.37;;;3.60;;
73699;SDS011;62005;50.082;8.988;2023-09-08T03:48:18;5.37;;;2.90;;
73699;SDS011;62005;50.082;8.988;2023-09-08T03:50:43;5.23;;;2.93;;
73699;SDS011;62005;50.082;8.988;2023-09-08T03:53:10;4.70;;;2.90;;
73699;SDS011;62005;50.082;8.988;2023-09-08T03:55:36;4.63;;;2.97;;
73699;SDS011;62005;50.082;8.988;2023-09-08T03:58:01;6.07;;;3.33;;
73699;SDS011;62005;50.082;8.988;2023-09-08T04:00:26;5.37;;;2.83;;
73699;SDS011;62005;50.082;8.988;2023-09-08T04:02:52;6.23;;;3.33;;
73699;SDS011;62005;50.082;8.988;2023-09-08T04:05:17;6.13;;;3.03;;
73699;SDS011;62005;50.082;8.988;2023-09-08T04:07:43;5.30;;;3.03;;
73699;SDS011;62005;50.082;8.988;2023-09-08T04:10:08;5.57;;;3.40;;
73699;SDS011;62005;50.082;8.988;2023-09-08T04:12:34;6.80;;;3.00;;
73699;SDS011;62005;50.082;8.988;2023-09-08T04:14:59;6.87;;;3.30;;
73699;SDS011;62005;50.082;8.988;2023-09-08T04:17:24;7.53;;;3.37;;
73699;SDS011;62005;50.082;8.988;2023-09-08T04:19:49;5.30;;;2.93;;
73699;SDS011;62005;50.082;8.988;2023-09-08T04:22:14;4.23;;;2.53;;
73699;SDS011;62005;50.082;8.988;2023-09-08T04:24:40;6.90;;;3.20;;
73699;SDS011;62005;50.082;8.988;2023-09-08T04:27:05;6.63;;;2.80;;
73699;SDS011;62005;50.082;8.988;2023-09-08T04:29:32;7.37;;;3.27;;
73699;SDS011;62005;50.082;8.988;2023-09-08T04:31:57;6.40;;;2.92;;
73699;SDS011;62005;50.082;8.988;2023-09-08T04:34:22;5.13;;;2.77;;
73699;SDS011;62005;50.082;8.988;2023-09-08T04:36:47;4.67;;;2.60;;
73699;SDS011;62005;50.082;8.988;2023-09-08T04:39:13;6.13;;;2.67;;
73699;SDS011;62005;50.082;8.988;2023-09-08T04:41:40;6.43;;;3.35;;
73699;SDS011;62005;50.082;8.988;2023-09-08T04:44:05;5.67;;;2.87;;
73699;SDS011;62005;50.082;8.988;2023-09-08T04:46:30;4.23;;;2.57;;
73699;SDS011;62005;50.082;8.988;2023-09-08T04:48:55;7.83;;;2.77;;
73699;SDS011;62005;50.082;8.988;2023-09-08T04:51:21;6.80;;;3.00;;
73699;SDS011;62005;50.082;8.988;2023-09-08T04:53:46;7.43;;;3.10;;
73699;SDS011;62005;50.082;8.988;2023-09-08T04:56:12;6.87;;;3.20;;
73699;SDS011;62005;50.082;8.988;2023-09-08T04:58:37;4.93;;;2.90;;
73699;SDS011;62005;50.082;8.988;2023-09-08T05:01:02;5.10;;;2.63;;
73699;SDS011;62005;50.082;8.988;2023-09-08T05:03:27;5.27;;;3.27;;
73699;SDS011;62005;50.082;8.988;2023-09-08T05:05:52;6.13;;;3.10;;
73699;SDS011;62005;50.082;8.988;2023-09-08T05:08:18;6.00;;;3.17;;
73699;SDS011;62005;50.082;8.988;2023-09-08T05:10:45;7.00;;;3.00;;
73699;SDS011;62005;50.082;8.988;2023-09-08T05:13:11;6.03;;;2.83;;
73699;SDS011;62005;50.082;8.988;2023-09-08T05:15:36;5.40;;;2.70;;
73699;SDS011;62005;50.082;8.988;2023-09-08T05:18:02;6.30;;;3.22;;
73699;SDS011;62005;50.082;8.988;2023-09-08T05:20:28;4.83;;;2.60;;
73699;SDS011;62005;50.082;8.988;2023-09-08T05:22:53;7.87;;;3.20;;
73699;SDS011;62005;50.082;8.988;2023-09-08T05:25:18;7.70;;;2.93;;
73699;SDS011;62005;50.082;8.988;2023-09-08T05:27:43;5.97;;;2.93;;
73699;SDS011;62005;50.082;8.988;2023-09-08T05:32:35;6.82;;;3.15;;
73699;SDS011;62005;50.082;8.988;2023-09-08T05:35:01;5.70;;;2.90;;
73699;SDS011;62005;50.082;8.988;2023-09-08T05:37:27;4.75;;;2.45;;
73699;SDS011;62005;50.082;8.988;2023-09-08T05:39:53;5.60;;;3.03;;
73699;SDS011;62005;50.082;8.988;2023-09-08T05:42:18;6.63;;;2.70;;
73699;SDS011;62005;50.082;8.988;2023-09-08T05:44:43;4.87;;;2.50;;
73699;SDS011;62005;50.082;8.988;2023-09-08T05:49:35;9.32;;;3.22;;
73699;SDS011;62005;50.082;8.988;2023-09-08T05:52:00;6.63;;;2.43;;
73699;SDS011;62005;50.082;8.988;2023-09-08T05:54:25;6.17;;;3.10;;
73699;SDS011;62005;50.082;8.988;2023-09-08T05:56:50;5.37;;;2.40;;
73699;SDS011;62005;50.082;8.988;2023-09-08T05:59:16;12.47;;;2.80;;
73699;SDS011;62005;50.082;8.988;2023-09-08T06:01:41;5.80;;;2.07;;
73699;SDS011;62005;50.082;8.988;2023-09-08T06:04:06;5.60;;;2.70;;
73699;SDS011;62005;50.082;8.988;2023-09-08T06:06:31;4.30;;;2.50;;
73699;SDS011;62005;50.082;8.988;2023-09-08T06:08:57;5.38;;;2.45;;
73699;SDS011;62005;50.082;8.988;2023-09-08T06:11:22;5.27;;;2.50;;
73699;SDS011;62005;50.082;8.988;2023-09-08T06:13:47;4.70;;;2.37;;
73699;SDS011;62005;50.082;8.988;2023-09-08T06:16:13;5.43;;;2.60;;
73699;SDS011;62005;50.082;8.988;2023-09-08T06:18:38;5.73;;;2.70;;
73699;SDS011;62005;50.082;8.988;2023-09-08T06:21:10;9.43;;;2.92;;
73699;SDS011;62005;50.082;8.988;2023-09-08T06:23:36;4.23;;;2.70;;
73699;SDS011;62005;50.082;8.988;2023-09-08T06:26:01;4.70;;;2.37;;
73699;SDS011;62005;50.082;8.988;2023-09-08T06:28:27;5.70;;;2.63;;
73699;SDS011;62005;50.082;8.988;2023-09-08T06:30:53;11.68;;;3.42;;
73699;SDS011;62005;50.082;8.988;2023-09-08T06:33:18;7.70;;;2.63;;
73699;SDS011;62005;50.082;8.988;2023-09-08T06:35:43;8.53;;;3.40;;
73699;SDS011;62005;50.082;8.988;2023-09-08T06:38:09;7.70;;;4.67;;
73699;SDS011;62005;50.082;8.988;2023-09-08T06:40:34;9.37;;;4.20;;
73699;SDS011;62005;50.082;8.988;2023-09-08T06:42:59;10.53;;;5.40;;
73699;SDS011;62005;50.082;8.988;2023-09-08T06:45:24;9.73;;;4.87;;
73699;SDS011;62005;50.082;8.988;2023-09-08T06:47:50;10.30;;;5.33;;
73699;SDS011;62005;50.082;8.988;2023-09-08T06:50:19;10.38;;;5.03;;
73699;SDS011;62005;50.082;8.988;2023-09-08T06:52:44;9.30;;;4.27;;
73699;SDS011;62005;50.082;8.988;2023-09-08T06:55:10;9.10;;;3.77;;
73699;SDS011;62005;50.082;8.988;2023-09-08T06:57:35;8.33;;;4.13;;
73699;SDS011;62005;50.082;8.988;2023-09-08T07:00:00;6.13;;;3.57;;
73699;SDS011;62005;50.082;8.988;2023-09-08T07:02:25;8.70;;;4.03;;
73699;SDS011;62005;50.082;8.988;2023-09-08T07:04:51;10.13;;;3.80;;
73699;SDS011;62005;50.082;8.988;2023-09-08T07:07:16;9.47;;;3.80;;
73699;SDS011;62005;50.082;8.988;2023-09-08T07:09:42;5.18;;;3.40;;
73699;SDS011;62005;50.082;8.988;2023-09-08T07:12:07;10.13;;;3.73;;
73699;SDS011;62005;50.082;8.988;2023-09-08T07:14:33;9.07;;;3.23;;
73699;SDS011;62005;50.082;8.988;2023-09-08T07:16:58;6.20;;;2.80;;
73699;SDS011;62005;50.082;8.988;2023-09-08T07:19:23;8.20;;;3.28;;
73699;SDS011;62005;50.082;8.988;2023-09-08T07:21:49;8.13;;;3.07;;
73699;SDS011;62005;50.082;8.988;2023-09-08T07:24:14;5.70;;;2.93;;
73699;SDS011;62005;50.082;8.988;2023-09-08T07:26:41;8.23;;;3.28;;
73699;SDS011;62005;50.082;8.988;2023-09-08T07:29:06;5.95;;;2.83;;
73699;SDS011;62005;50.082;8.988;2023-09-08T07:31:32;6.00;;;2.67;;
73699;SDS011;62005;50.082;8.988;2023-09-08T07:33:57;8.17;;;2.77;;
73699;SDS011;62005;50.082;8.988;2023-09-08T07:36:22;5.90;;;2.80;;
73699;SDS011;62005;50.082;8.988;2023-09-08T07:38:47;5.70;;;3.10;;
73699;SDS011;62005;50.082;8.988;2023-09-08T07:41:13;5.32;;;2.53;;
73699;SDS011;62005;50.082;8.988;2023-09-08T07:43:38;6.20;;;2.87;;
73699;SDS011;62005;50.082;8.988;2023-09-08T07:46:06;8.38;;;2.75;;
73699;SDS011;62005;50.082;8.988;2023-09-08T07:48:32;6.95;;;3.08;;
73699;SDS011;62005;50.082;8.988;2023-09-08T07:50:57;5.35;;;2.60;;
73699;SDS011;62005;50.082;8.988;2023-09-08T07:53:25;6.15;;;2.83;;
73699;SDS011;62005;50.082;8.988;2023-09-08T07:55:50;7.50;;;2.50;;
73699;SDS011;62005;50.082;8.988;2023-09-08T07:58:15;5.50;;;2.10;;
73699;SDS011;62005;50.082;8.988;2023-09-08T08:00:40;5.87;;;2.33;;
73699;SDS011;62005;50.082;8.988;2023-09-08T08:03:05;5.73;;;2.33;;
73699;SDS011;62005;50.082;8.988;2023-09-08T08:05:31;5.32;;;2.13;;
73699;SDS011;62005;50.082;8.988;2023-09-08T08:07:56;4.83;;;2.57;;
73699;SDS011;62005;50.082;8.988;2023-09-08T08:10:21;7.00;;;1.80;;
73699;SDS011;62005;50.082;8.988;2023-09-08T08:12:47;6.57;;;2.27;;
73699;SDS011;62005;50.082;8.988;2023-09-08T08:15:15;4.30;;;1.80;;
73699;SDS011;62005;50.082;8.988;2023-09-08T08:17:40;5.68;;;2.00;;
73699;SDS011;62005;50.082;8.988;2023-09-08T08:20:06;7.83;;;1.97;;
73699;SDS011;62005;50.082;8.988;2023-09-08T08:22:33;6.53;;;1.92;;
73699;SDS011;62005;50.082;8.988;2023-09-08T08:24:59;4.35;;;2.25;;
73699;SDS011;62005;50.082;8.988;2023-09-08T08:27:24;4.47;;;1.83;;
73699;SDS011;62005;50.082;8.988;2023-09-08T08:29:49;3.10;;;1.40;;
73699;SDS011;62005;50.082;8.988;2023-09-08T08:32:16;5.47;;;1.65;;
73699;SDS011;62005;50.082;8.988;2023-09-08T08:34:41;3.27;;;1.30;;
73699;SDS011;62005;50.082;8.988;2023-09-08T08:37:06;4.27;;;1.40;;
73699;SDS011;62005;50.082;8.988;2023-09-08T08:39:31;3.83;;;1.60;;
73699;SDS011;62005;50.082;8.988;2023-09-08T08:41:56;4.27;;;1.20;;
73699;SDS011;62005;50.082;8.988;2023-09-08T08:44:22;4.28;;;1.70;;
73699;SDS011;62005;50.082;8.988;2023-09-08T08:46:48;2.93;;;1.03;;
73699;SDS011;62005;50.082;8.988;2023-09-08T08:49:14;3.53;;;1.07;;
73699;SDS011;62005;50.082;8.988;2023-09-08T08:51:40;3.17;;;1.58;;
73699;SDS011;62005;50.082;8.988;2023-09-08T08:54:07;2.38;;;1.13;;
73699;SDS011;62005;50.082;8.988;2023-09-08T08:56:33;3.97;;;1.40;;
73699;SDS011;62005;50.082;8.988;2023-09-08T08:58:58;4.03;;;1.70;;
73699;SDS011;62005;50.082;8.988;2023-09-08T09:01:25;4.05;;;1.30;;
73699;SDS011;62005;50.082;8.988;2023-09-08T09:03:51;7.85;;;1.70;;
73699;SDS011;62005;50.082;8.988;2023-09-08T09:06:16;5.40;;;1.20;;
73699;SDS011;62005;50.082;8.988;2023-09-08T09:08:43;2.67;;;1.15;;
73699;SDS011;62005;50.082;8.988;2023-09-08T09:11:08;2.58;;;1.25;;
73699;SDS011;62005;50.082;8.988;2023-09-08T09:13:33;3.17;;;1.20;;
73699;SDS011;62005;50.082;8.988;2023-09-08T09:15:59;4.00;;;1.07;;
73699;SDS011;62005;50.082;8.988;2023-09-08T09:18:25;3.03;;;1.27;;
73699;SDS011;62005;50.082;8.988;2023-09-08T09:20:54;2.95;;;1.42;;
73699;SDS011;62005;50.082;8.988;2023-09-08T09:23:30;2.70;;;1.25;;
73699;SDS011;62005;50.082;8.988;2023-09-08T09:25:56;4.20;;;1.20;;
73699;SDS011;62005;50.082;8.988;2023-09-08T09:28:21;4.65;;;1.20;;
73699;SDS011;62005;50.082;8.988;2023-09-08T09:30:50;3.23;;;1.30;;
73699;SDS011;62005;50.082;8.988;2023-09-08T09:33:16;2.03;;;1.08;;
73699;SDS011;62005;50.082;8.988;2023-09-08T09:35:42;3.63;;;1.20;;
73699;SDS011;62005;50.082;8.988;2023-09-08T09:38:08;4.68;;;1.10;;
73699;SDS011;62005;50.082;8.988;2023-09-08T09:40:34;2.33;;;1.13;;
73699;SDS011;62005;50.082;8.988;2023-09-08T09:42:59;2.50;;;1.13;;
73699;SDS011;62005;50.082;8.988;2023-09-08T09:45:27;2.07;;;1.10;;
73699;SDS011;62005;50.082;8.988;2023-09-08T09:47:52;2.58;;;1.45;;
73699;SDS011;62005;50.082;8.988;2023-09-08T09:50:30;3.17;;;1.27;;
73699;SDS011;62005;50.082;8.988;2023-09-08T09:52:59;2.45;;;1.17;;
73699;SDS011;62005;50.082;8.988;2023-09-08T09:55:28;3.15;;;1.10;;
73699;SDS011;62005;50.082;8.988;2023-09-08T09:57:57;5.00;;;1.42;;
73699;SDS011;62005;50.082;8.988;2023-09-08T10:00:28;2.20;;;1.10;;
73699;SDS011;62005;50.082;8.988;2023-09-08T10:02:54;3.00;;;1.30;;
73699;SDS011;62005;50.082;8.988;2023-09-08T10:05:20;2.15;;;1.10;;
73699;SDS011;62005;50.082;8.988;2023-09-08T10:07:48;2.85;;;1.13;;
73699;SDS011;62005;50.082;8.988;2023-09-08T10:10:15;3.83;;;1.50;;
73699;SDS011;62005;50.082;8.988;2023-09-08T10:12:41;3.38;;;1.33;;
73699;SDS011;62005;50.082;8.988;2023-09-08T10:15:08;2.72;;;1.02;;
73699;SDS011;62005;50.082;8.988;2023-09-08T10:17:35;3.53;;;1.25;;
73699;SDS011;62005;50.082;8.988;2023-09-08T10:20:01;2.53;;;1.13;;
73699;SDS011;62005;50.082;8.988;2023-09-08T10:24:59;2.40;;;1.00;;
73699;SDS011;62005;50.082;8.988;2023-09-08T10:27:25;6.05;;;1.40;;
73699;SDS011;62005;50.082;8.988;2023-09-08T10:29:50;3.85;;;1.52;;
73699;SDS011;62005;50.082;8.988;2023-09-08T10:32:16;2.92;;;1.27;;
73699;SDS011;62005;50.082;8.988;2023-09-08T10:34:43;4.00;;;1.50;;
73699;SDS011;62005;50.082;8.988;2023-09-08T10:37:21;3.28;;;1.60;;
73699;SDS011;62005;50.082;8.988;2023-09-08T10:39:47;2.78;;;1.10;;
73699;SDS011;62005;50.082;8.988;2023-09-08T10:47:24;4.63;;;1.02;;
73699;SDS011;62005;50.082;8.988;2023-09-08T10:49:50;4.68;;;1.40;;
73699;SDS011;62005;50.082;8.988;2023-09-08T10:52:18;4.22;;;1.92;;
73699;SDS011;62005;50.082;8.988;2023-09-08T10:54:49;4.13;;;0.90;;
73699;SDS011;62005;50.082;8.988;2023-09-08T10:57:21;4.05;;;1.60;;
73699;SDS011;62005;50.082;8.988;2023-09-08T11:04:56;2.42;;;1.15;;
73699;SDS011;62005;50.082;8.988;2023-09-08T11:07:21;2.20;;;0.93;;
73699;SDS011;62005;50.082;8.988;2023-09-08T11:09:47;2.70;;;0.80;;
73699;SDS011;62005;50.082;8.988;2023-09-08T11:12:12;4.57;;;0.97;;
73699;SDS011;62005;50.082;8.988;2023-09-08T11:14:37;3.73;;;1.10;;
73699;SDS011;62005;50.082;8.988;2023-09-08T11:17:02;3.57;;;0.80;;
73699;SDS011;62005;50.082;8.988;2023-09-08T11:19:42;3.03;;;1.20;;
73699;SDS011;62005;50.082;8.988;2023-09-08T11:22:07;4.65;;;1.02;;
73699;SDS011;62005;50.082;8.988;2023-09-08T11:26:59;2.78;;;0.80;;
73699;SDS011;62005;50.082;8.988;2023-09-08T11:29:24;3.40;;;1.23;;
73699;SDS011;62005;50.082;8.988;2023-09-08T11:31:51;3.27;;;1.17;;
73699;SDS011;62005;50.082;8.988;2023-09-08T11:34:17;2.53;;;0.88;;
73699;SDS011;62005;50.082;8.988;2023-09-08T11:36:42;3.20;;;1.10;;
73699;SDS011;62005;50.082;8.988;2023-09-08T11:39:07;4.10;;;1.10;;
73699;SDS011;62005;50.082;8.988;2023-09-08T11:41:33;2.30;;;1.05;;
73699;SDS011;62005;50.082;8.988;2023-09-08T11:43:58;2.13;;;0.90;;
73699;SDS011;62005;50.082;8.988;2023-09-08T11:46:24;2.92;;;1.25;;
73699;SDS011;62005;50.082;8.988;2023-09-08T11:48:50;3.55;;;1.00;;
73699;SDS011;62005;50.082;8.988;2023-09-08T11:51:16;2.40;;;1.00;;
73699;SDS011;62005;50.082;8.988;2023-09-08T11:53:41;4.03;;;1.00;;
73699;SDS011;62005;50.082;8.988;2023-09-08T11:56:07;4.22;;;1.00;;
73699;SDS011;62005;50.082;8.988;2023-09-08T11:58:33;2.53;;;1.00;;
73699;SDS011;62005;50.082;8.988;2023-09-08T12:00:59;2.25;;;0.80;;
73699;SDS011;62005;50.082;8.988;2023-09-08T12:03:28;2.53;;;0.90;;
73699;SDS011;62005;50.082;8.988;2023-09-08T12:05:53;3.97;;;1.20;;
73699;SDS011;62005;50.082;8.988;2023-09-08T12:08:19;3.30;;;1.38;;
73699;SDS011;62005;50.082;8.988;2023-09-08T12:10:45;4.73;;;1.17;;
73699;SDS011;62005;50.082;8.988;2023-09-08T12:13:10;3.33;;;1.23;;
73699;SDS011;62005;50.082;8.988;2023-09-08T12:15:36;2.00;;;0.80;;
73699;SDS011;62005;50.082;8.988;2023-09-08T12:18:03;3.05;;;1.13;;
73699;SDS011;62005;50.082;8.988;2023-09-08T12:20:29;3.63;;;1.20;;
73699;SDS011;62005;50.082;8.988;2023-09-08T12:22:56;3.08;;;0.90;;
73699;SDS011;62005;50.082;8.988;2023-09-08T12:25:22;2.83;;;1.35;;
73699;SDS011;62005;50.082;8.988;2023-09-08T12:27:49;2.17;;;0.93;;
73699;SDS011;62005;50.082;8.988;2023-09-08T12:30:19;3.22;;;1.00;;
73699;SDS011;62005;50.082;8.988;2023-09-08T12:32:45;4.00;;;1.20;;
73699;SDS011;62005;50.082;8.988;2023-09-08T12:35:11;3.25;;;1.00;;
73699;SDS011;62005;50.082;8.988;2023-09-08T12:37:36;2.40;;;0.90;;
73699;SDS011;62005;50.082;8.988;2023-09-08T12:40:03;2.38;;;1.10;;
73699;SDS011;62005;50.082;8.988;2023-09-08T12:42:28;3.13;;;1.13;;
73699;SDS011;62005;50.082;8.988;2023-09-08T12:44:57;3.58;;;1.10;;
73699;SDS011;62005;50.082;8.988;2023-09-08T12:47:23;2.80;;;0.95;;
73699;SDS011;62005;50.082;8.988;2023-09-08T12:49:48;4.40;;;1.30;;
73699;SDS011;62005;50.082;8.988;2023-09-08T12:52:13;3.73;;;1.13;;
73699;SDS011;62005;50.082;8.988;2023-09-08T12:54:42;4.23;;;1.30;;
73699;SDS011;62005;50.082;8.988;2023-09-08T12:57:07;3.15;;;1.10;;
73699;SDS011;62005;50.082;8.988;2023-09-08T12:59:32;3.23;;;1.17;;
73699;SDS011;62005;50.082;8.988;2023-09-08T13:01:58;2.97;;;0.93;;
73699;SDS011;62005;50.082;8.988;2023-09-08T13:04:23;3.07;;;1.13;;
73699;SDS011;62005;50.082;8.988;2023-09-08T13:06:49;2.78;;;1.20;;
73699;SDS011;62005;50.082;8.988;2023-09-08T13:09:14;2.65;;;1.20;;
73699;SDS011;62005;50.082;8.988;2023-09-08T13:11:40;3.75;;;1.13;;
73699;SDS011;62005;50.082;8.988;2023-09-08T13:14:05;2.05;;;0.93;;
73699;SDS011;62005;50.082;8.988;2023-09-08T13:16:30;3.80;;;1.07;;
73699;SDS011;62005;50.082;8.988;2023-09-08T13:18:55;4.00;;;0.90;;
73699;SDS011;62005;50.082;8.988;2023-09-08T13:21:24;2.57;;;1.00;;
73699;SDS011;62005;50.082;8.988;2023-09-08T13:23:51;2.70;;;1.23;;
73699;SDS011;62005;50.082;8.988;2023-09-08T13:26:16;3.00;;;1.03;;
73699;SDS011;62005;50.082;8.988;2023-09-08T13:28:41;2.83;;;0.90;;
73699;SDS011;62005;50.082;8.988;2023-09-08T13:31:07;3.67;;;1.10;;
73699;SDS011;62005;50.082;8.988;2023-09-08T13:33:32;4.03;;;1.03;;
73699;SDS011;62005;50.082;8.988;2023-09-08T13:35:57;4.80;;;1.10;;
73699;SDS011;62005;50.082;8.988;2023-09-08T13:38:22;3.23;;;1.30;;
73699;SDS011;62005;50.082;8.988;2023-09-08T13:40:48;2.90;;;0.90;;
73699;SDS011;62005;50.082;8.988;2023-09-08T13:43:13;2.40;;;1.00;;
73699;SDS011;62005;50.082;8.988;2023-09-08T13:45:39;2.70;;;1.10;;
73699;SDS011;62005;50.082;8.988;2023-09-08T13:48:04;3.17;;;1.30;;
73699;SDS011;62005;50.082;8.988;2023-09-08T13:50:31;2.15;;;0.98;;
73699;SDS011;62005;50.082;8.988;2023-09-08T13:52:56;2.73;;;0.90;;
73699;SDS011;62005;50.082;8.988;2023-09-08T13:55:21;5.37;;;1.37;;
73699;SDS011;62005;50.082;8.988;2023-09-08T13:57:49;3.58;;;1.08;;
73699;SDS011;62005;50.082;8.988;2023-09-08T14:00:14;2.67;;;1.02;;
73699;SDS011;62005;50.082;8.988;2023-09-08T14:02:39;2.40;;;1.15;;
73699;SDS011;62005;50.082;8.988;2023-09-08T14:05:05;2.00;;;0.70;;
73699;SDS011;62005;50.082;8.988;2023-09-08T14:07:30;4.55;;;1.02;;
73699;SDS011;62005;50.082;8.988;2023-09-08T14:09:55;3.53;;;1.10;;
73699;SDS011;62005;50.082;8.988;2023-09-08T14:12:20;5.70;;;0.90;;
73699;SDS011;62005;50.082;8.988;2023-09-08T14:14:46;3.43;;;1.10;;
73699;SDS011;62005;50.082;8.988;2023-09-08T14:17:11;3.23;;;1.10;;
73699;SDS011;62005;50.082;8.988;2023-09-08T14:19:36;2.53;;;1.33;;
73699;SDS011;62005;50.082;8.988;2023-09-08T14:22:01;2.53;;;1.07;;
73699;SDS011;62005;50.082;8.988;2023-09-08T14:24:27;2.70;;;0.90;;
73699;SDS011;62005;50.082;8.988;2023-09-08T14:26:52;3.23;;;1.13;;
73699;SDS011;62005;50.082;8.988;2023-09-08T14:29:21;4.43;;;0.90;;
73699;SDS011;62005;50.082;8.988;2023-09-08T14:31:52;4.30;;;1.10;;
73699;SDS011;62005;50.082;8.988;2023-09-08T14:34:18;2.63;;;0.93;;
73699;SDS011;62005;50.082;8.988;2023-09-08T14:36:43;3.80;;;1.17;;
73699;SDS011;62005;50.082;8.988;2023-09-08T14:39:09;4.00;;;1.10;;
73699;SDS011;62005;50.082;8.988;2023-09-08T14:41:34;2.23;;;0.90;;
73699;SDS011;62005;50.082;8.988;2023-09-08T14:43:59;3.55;;;1.30;;
73699;SDS011;62005;50.082;8.988;2023-09-08T14:46:24;3.33;;;1.60;;
73699;SDS011;62005;50.082;8.988;2023-09-08T14:48:50;2.93;;;1.20;;
73699;SDS011;62005;50.082;8.988;2023-09-08T14:51:15;3.07;;;0.80;;
73699;SDS011;62005;50.082;8.988;2023-09-08T14:53:40;2.43;;;1.00;;
73699;SDS011;62005;50.082;8.988;2023-09-08T14:56:05;2.60;;;1.33;;
73699;SDS011;62005;50.082;8.988;2023-09-08T14:58:31;2.93;;;0.90;;
73699;SDS011;62005;50.082;8.988;2023-09-08T15:01:00;3.00;;;1.17;;
73699;SDS011;62005;50.082;8.988;2023-09-08T15:03:28;2.58;;;0.93;;
73699;SDS011;62005;50.082;8.988;2023-09-08T15:05:54;2.67;;;1.10;;
73699;SDS011;62005;50.082;8.988;2023-09-08T15:08:28;2.20;;;0.80;;